Sunday, April 21, 2019, 9:54 PM CDT
Back to Local

KBTR, Baton Rouge Metro Ryan Field

Location: Baton Rouge, LA, United States Lat: 30.533
Local Time: 9:54 PM CDT ( 2:54 GMT) Lon: -91.15
Time Zone: US/Central Elev: 68 ft

Show me the last for .
Show Decoded

2019-04-21 20:53 METAR KBTR 220153Z 11004KT 10SM CLR 17/09 A3014 RMK AO2 SLP204 T01720089 $ =
2019-04-21 19:53 METAR KBTR 220053Z 18008KT 10SM CLR 21/06 A3011 RMK AO2 SLP196 T02110061 $ =
2019-04-21 18:53 METAR KBTR 212353Z 19010KT 10SM CLR 23/07 A3010 RMK AO2 SLP191 T02330067 10267
                 20233 55002 $ =
2019-04-21 17:53 METAR KBTR 212253Z 18007KT 10SM CLR 25/07 A3010 RMK AO2 SLP191 T02500072 $ =
2019-04-21 16:53 METAR KBTR 212153Z 20008KT 10SM CLR 26/06 A3010 RMK AO2 SLP191 T02610061 $ =
2019-04-21 15:53 METAR KBTR 212053Z 15007KT 10SM CLR 26/06 A3010 RMK AO2 SLP193 T02610056 58016 $
                 =
2019-04-21 14:53 METAR KBTR 211953Z VRB06KT 10SM CLR 26/05 A3012 RMK AO2 SLP198 T02560050 $ =
2019-04-21 13:53 METAR KBTR 211853Z VRB04G16KT 10SM CLR 25/05 A3014 RMK AO2 SLP205 T02500050 $ =
2019-04-21 12:53 METAR KBTR 211753Z 18008KT 10SM CLR 24/06 A3015 RMK AO2 SLP209 T02440061 10250
                 20089 58002 $ =
2019-04-21 11:53 METAR KBTR 211653Z 15010KT 10SM CLR 24/08 A3016 RMK AO2 SLP210 T02440083 $ =
2019-04-21 10:53 METAR KBTR 211553Z 16007KT 10SM CLR 23/08 A3015 RMK AO2 SLP210 T02280083 $ =
2019-04-21 09:53 METAR KBTR 211453Z 17005KT 10SM CLR 21/11 A3016 RMK AO2 SLP211 T02110106 51017 $
                 =
2019-04-21 08:53 METAR KBTR 211353Z 00000KT 10SM CLR 17/13 A3014 RMK AO2 SLP206 T01720128 $ =
2019-04-21 07:53 METAR KBTR 211253Z 00000KT 10SM CLR 12/11 A3013 RMK AO2 SLP203 T01220106 $ =
2019-04-21 06:53 METAR KBTR 211153Z 00000KT 10SM CLR 09/08 A3011 RMK AO2 SLP194 T00890078 10106
                 20083 53015 $ =
2019-04-21 05:53 METAR KBTR 211053Z AUTO 00000KT 10SM CLR 09/08 A3008 RMK AO2 SLP185 T00890078 $
                 =
2019-04-21 04:53 METAR KBTR 210953Z AUTO 00000KT 10SM CLR 09/08 A3007 RMK AO2 SLP181 T00890083 $
                 =
2019-04-21 03:53 METAR KBTR 210853Z AUTO 00000KT 10SM CLR 09/08 A3006 RMK AO2 SLP179 T00940083
                 53001 $ =
2019-04-21 02:53 METAR KBTR 210753Z AUTO 00000KT 10SM CLR 09/08 A3005 RMK AO2 SLP176 T00940083 $
                 =
2019-04-21 01:53 METAR KBTR 210653Z AUTO 00000KT 9SM CLR 11/09 A3005 RMK AO2 SLP175 T01060094 $ =
2019-04-21 00:53 METAR KBTR 210553Z AUTO 00000KT 10SM CLR 11/09 A3006 RMK AO2 SLP178 T01060089
                 10206 20106 402220094 50003 $ =
2019-04-20 23:53 METAR KBTR 210453Z AUTO 00000KT 10SM CLR 11/09 A3007 RMK AO2 SLP180 T01110089 $
                 =
2019-04-20 22:53 METAR KBTR 210353Z 00000KT 10SM CLR 12/09 A3005 RMK AO2 SLP175 T01170089 $ =

Support USWX by starting your Amazon purchase here.